sensor_id;sensor_type;location;lat;lon;timestamp;P1;durP1;ratioP1;P2;durP2;ratioP2
43560;SDS011;32305;46.410;17.394;2023-02-11T00:00:59;25.27;;;17.30;;
43560;SDS011;32305;46.410;17.394;2023-02-11T00:03:31;25.90;;;17.80;;
43560;SDS011;32305;46.410;17.394;2023-02-11T00:06:02;24.60;;;17.45;;
43560;SDS011;32305;46.410;17.394;2023-02-11T00:08:31;25.60;;;18.05;;
43560;SDS011;32305;46.410;17.394;2023-02-11T00:10:58;24.15;;;17.05;;
43560;SDS011;32305;46.410;17.394;2023-02-11T00:13:26;24.42;;;16.63;;
43560;SDS011;32305;46.410;17.394;2023-02-11T00:15:53;24.38;;;16.75;;
43560;SDS011;32305;46.410;17.394;2023-02-11T00:18:21;23.58;;;16.60;;
43560;SDS011;32305;46.410;17.394;2023-02-11T00:20:48;24.35;;;16.83;;
43560;SDS011;32305;46.410;17.394;2023-02-11T00:23:15;24.73;;;16.33;;
43560;SDS011;32305;46.410;17.394;2023-02-11T00:25:43;24.50;;;16.23;;
43560;SDS011;32305;46.410;17.394;2023-02-11T00:28:11;24.58;;;16.40;;
43560;SDS011;32305;46.410;17.394;2023-02-11T00:30:38;25.45;;;16.95;;
43560;SDS011;32305;46.410;17.394;2023-02-11T00:33:06;24.75;;;16.35;;
43560;SDS011;32305;46.410;17.394;2023-02-11T00:35:35;24.52;;;17.10;;
43560;SDS011;32305;46.410;17.394;2023-02-11T00:38:03;25.53;;;16.53;;
43560;SDS011;32305;46.410;17.394;2023-02-11T00:40:30;24.83;;;17.08;;
43560;SDS011;32305;46.410;17.394;2023-02-11T00:42:57;26.48;;;16.38;;
43560;SDS011;32305;46.410;17.394;2023-02-11T00:45:24;23.83;;;15.43;;
43560;SDS011;32305;46.410;17.394;2023-02-11T00:47:51;23.15;;;15.43;;
43560;SDS011;32305;46.410;17.394;2023-02-11T00:50:19;26.08;;;16.15;;
43560;SDS011;32305;46.410;17.394;2023-02-11T00:52:46;23.13;;;15.13;;
43560;SDS011;32305;46.410;17.394;2023-02-11T00:55:13;24.73;;;16.38;;
43560;SDS011;32305;46.410;17.394;2023-02-11T00:57:41;21.92;;;15.35;;
43560;SDS011;32305;46.410;17.394;2023-02-11T01:00:08;24.48;;;17.10;;
43560;SDS011;32305;46.410;17.394;2023-02-11T01:02:37;20.70;;;14.82;;
43560;SDS011;32305;46.410;17.394;2023-02-11T01:05:04;23.40;;;15.82;;
43560;SDS011;32305;46.410;17.394;2023-02-11T01:07:32;21.70;;;15.45;;
43560;SDS011;32305;46.410;17.394;2023-02-11T01:09:59;20.67;;;14.88;;
43560;SDS011;32305;46.410;17.394;2023-02-11T01:12:26;21.10;;;14.68;;
43560;SDS011;32305;46.410;17.394;2023-02-11T01:14:53;21.80;;;15.30;;
43560;SDS011;32305;46.410;17.394;2023-02-11T01:17:20;22.33;;;15.23;;
43560;SDS011;32305;46.410;17.394;2023-02-11T01:19:47;22.63;;;15.35;;
43560;SDS011;32305;46.410;17.394;2023-02-11T01:22:15;20.08;;;14.02;;
43560;SDS011;32305;46.410;17.394;2023-02-11T01:24:42;21.98;;;14.85;;
43560;SDS011;32305;46.410;17.394;2023-02-11T01:27:09;22.73;;;14.63;;
43560;SDS011;32305;46.410;17.394;2023-02-11T01:29:36;22.27;;;14.55;;
43560;SDS011;32305;46.410;17.394;2023-02-11T01:32:03;22.10;;;14.80;;
43560;SDS011;32305;46.410;17.394;2023-02-11T01:34:30;20.80;;;14.70;;
43560;SDS011;32305;46.410;17.394;2023-02-11T01:36:58;21.33;;;14.57;;
43560;SDS011;32305;46.410;17.394;2023-02-11T01:39:25;21.90;;;13.93;;
43560;SDS011;32305;46.410;17.394;2023-02-11T01:41:55;22.15;;;14.95;;
43560;SDS011;32305;46.410;17.394;2023-02-11T01:44:24;20.80;;;14.48;;
43560;SDS011;32305;46.410;17.394;2023-02-11T01:46:56;19.73;;;14.07;;
43560;SDS011;32305;46.410;17.394;2023-02-11T01:49:27;19.20;;;13.63;;
43560;SDS011;32305;46.410;17.394;2023-02-11T01:52:03;22.33;;;14.68;;
43560;SDS011;32305;46.410;17.394;2023-02-11T01:54:43;20.98;;;13.77;;
43560;SDS011;32305;46.410;17.394;2023-02-11T01:57:36;18.85;;;14.10;;
43560;SDS011;32305;46.410;17.394;2023-02-11T02:00:14;20.05;;;13.88;;
43560;SDS011;32305;46.410;17.394;2023-02-11T02:03:04;21.15;;;14.23;;
43560;SDS011;32305;46.410;17.394;2023-02-11T02:05:38;21.75;;;15.20;;
43560;SDS011;32305;46.410;17.394;2023-02-11T02:08:34;22.85;;;14.38;;
43560;SDS011;32305;46.410;17.394;2023-02-11T02:11:06;18.98;;;13.50;;
43560;SDS011;32305;46.410;17.394;2023-02-11T02:13:33;23.08;;;14.70;;
43560;SDS011;32305;46.410;17.394;2023-02-11T02:16:04;21.17;;;14.30;;
43560;SDS011;32305;46.410;17.394;2023-02-11T02:27:49;19.83;;;14.07;;
43560;SDS011;32305;46.410;17.394;2023-02-11T02:30:45;21.20;;;13.95;;
43560;SDS011;32305;46.410;17.394;2023-02-11T02:33:48;19.80;;;13.23;;
43560;SDS011;32305;46.410;17.394;2023-02-11T02:36:39;20.65;;;13.30;;
43560;SDS011;32305;46.410;17.394;2023-02-11T02:39:20;20.13;;;13.90;;
43560;SDS011;32305;46.410;17.394;2023-02-11T02:41:51;20.00;;;13.23;;
43560;SDS011;32305;46.410;17.394;2023-02-11T02:44:19;22.40;;;13.93;;
43560;SDS011;32305;46.410;17.394;2023-02-11T02:46:47;20.88;;;13.60;;
43560;SDS011;32305;46.410;17.394;2023-02-11T02:49:15;20.02;;;12.88;;
43560;SDS011;32305;46.410;17.394;2023-02-11T02:52:00;18.95;;;13.38;;
43560;SDS011;32305;46.410;17.394;2023-02-11T02:55:07;20.35;;;13.70;;
43560;SDS011;32305;46.410;17.394;2023-02-11T02:58:02;20.63;;;14.05;;
43560;SDS011;32305;46.410;17.394;2023-02-11T03:00:58;20.98;;;13.68;;
43560;SDS011;32305;46.410;17.394;2023-02-11T03:04:02;18.77;;;13.73;;
43560;SDS011;32305;46.410;17.394;2023-02-11T03:06:49;20.17;;;13.40;;
43560;SDS011;32305;46.410;17.394;2023-02-11T03:09:39;20.63;;;13.32;;
43560;SDS011;32305;46.410;17.394;2023-02-11T03:12:12;19.98;;;13.20;;
43560;SDS011;32305;46.410;17.394;2023-02-11T03:14:40;18.85;;;13.27;;
43560;SDS011;32305;46.410;17.394;2023-02-11T03:17:08;20.50;;;13.82;;
43560;SDS011;32305;46.410;17.394;2023-02-11T03:19:37;17.83;;;12.70;;
43560;SDS011;32305;46.410;17.394;2023-02-11T03:22:12;21.13;;;13.25;;
43560;SDS011;32305;46.410;17.394;2023-02-11T03:24:52;17.48;;;12.50;;
43560;SDS011;32305;46.410;17.394;2023-02-11T03:27:26;19.17;;;13.55;;
43560;SDS011;32305;46.410;17.394;2023-02-11T03:30:11;20.65;;;13.70;;
43560;SDS011;32305;46.410;17.394;2023-02-11T03:32:48;18.73;;;12.98;;
43560;SDS011;32305;46.410;17.394;2023-02-11T03:35:22;19.52;;;12.98;;
43560;SDS011;32305;46.410;17.394;2023-02-11T03:37:59;17.80;;;12.23;;
43560;SDS011;32305;46.410;17.394;2023-02-11T03:40:31;18.67;;;13.02;;
43560;SDS011;32305;46.410;17.394;2023-02-11T03:43:03;18.45;;;13.07;;
43560;SDS011;32305;46.410;17.394;2023-02-11T03:45:35;18.77;;;12.43;;
43560;SDS011;32305;46.410;17.394;2023-02-11T03:48:04;17.67;;;12.75;;
43560;SDS011;32305;46.410;17.394;2023-02-11T03:50:40;17.83;;;12.88;;
43560;SDS011;32305;46.410;17.394;2023-02-11T03:53:08;21.52;;;13.57;;
43560;SDS011;32305;46.410;17.394;2023-02-11T03:55:37;18.48;;;12.70;;
43560;SDS011;32305;46.410;17.394;2023-02-11T03:58:06;16.65;;;11.75;;
43560;SDS011;32305;46.410;17.394;2023-02-11T04:00:38;18.20;;;13.15;;
43560;SDS011;32305;46.410;17.394;2023-02-11T04:03:07;17.58;;;12.27;;
43560;SDS011;32305;46.410;17.394;2023-02-11T04:05:35;18.75;;;12.68;;
43560;SDS011;32305;46.410;17.394;2023-02-11T04:08:02;16.75;;;11.95;;
43560;SDS011;32305;46.410;17.394;2023-02-11T04:10:30;17.90;;;12.30;;
43560;SDS011;32305;46.410;17.394;2023-02-11T04:12:57;15.95;;;12.18;;
43560;SDS011;32305;46.410;17.394;2023-02-11T04:15:24;15.50;;;11.23;;
43560;SDS011;32305;46.410;17.394;2023-02-11T04:17:51;18.90;;;12.57;;
43560;SDS011;32305;46.410;17.394;2023-02-11T04:20:18;17.63;;;12.15;;
43560;SDS011;32305;46.410;17.394;2023-02-11T04:22:46;16.70;;;11.65;;
43560;SDS011;32305;46.410;17.394;2023-02-11T04:25:13;16.35;;;11.13;;
43560;SDS011;32305;46.410;17.394;2023-02-11T04:27:40;17.90;;;11.73;;
43560;SDS011;32305;46.410;17.394;2023-02-11T04:30:07;15.68;;;11.20;;
43560;SDS011;32305;46.410;17.394;2023-02-11T04:32:35;16.80;;;11.90;;
43560;SDS011;32305;46.410;17.394;2023-02-11T04:35:02;18.33;;;12.45;;
43560;SDS011;32305;46.410;17.394;2023-02-11T04:37:29;16.45;;;11.25;;
43560;SDS011;32305;46.410;17.394;2023-02-11T04:39:57;15.50;;;11.15;;
43560;SDS011;32305;46.410;17.394;2023-02-11T04:42:24;14.48;;;10.23;;
43560;SDS011;32305;46.410;17.394;2023-02-11T04:44:51;15.25;;;11.23;;
43560;SDS011;32305;46.410;17.394;2023-02-11T04:47:18;16.77;;;11.55;;
43560;SDS011;32305;46.410;17.394;2023-02-11T04:49:45;15.48;;;10.75;;
43560;SDS011;32305;46.410;17.394;2023-02-11T04:52:12;16.23;;;11.52;;
43560;SDS011;32305;46.410;17.394;2023-02-11T04:54:39;16.13;;;11.35;;
43560;SDS011;32305;46.410;17.394;2023-02-11T04:57:07;15.32;;;11.45;;
43560;SDS011;32305;46.410;17.394;2023-02-11T04:59:34;15.32;;;10.82;;
43560;SDS011;32305;46.410;17.394;2023-02-11T05:02:01;14.93;;;11.15;;
43560;SDS011;32305;46.410;17.394;2023-02-11T05:04:29;14.35;;;10.27;;
43560;SDS011;32305;46.410;17.394;2023-02-11T05:06:56;16.90;;;11.48;;
43560;SDS011;32305;46.410;17.394;2023-02-11T05:09:24;16.35;;;10.68;;
43560;SDS011;32305;46.410;17.394;2023-02-11T05:11:51;16.13;;;11.52;;
43560;SDS011;32305;46.410;17.394;2023-02-11T05:14:18;14.15;;;10.05;;
43560;SDS011;32305;46.410;17.394;2023-02-11T05:16:46;14.48;;;10.15;;
43560;SDS011;32305;46.410;17.394;2023-02-11T05:19:13;14.25;;;10.60;;
43560;SDS011;32305;46.410;17.394;2023-02-11T05:21:40;15.82;;;10.73;;
43560;SDS011;32305;46.410;17.394;2023-02-11T05:24:22;14.18;;;10.25;;
43560;SDS011;32305;46.410;17.394;2023-02-11T05:26:49;15.43;;;10.68;;
43560;SDS011;32305;46.410;17.394;2023-02-11T05:29:16;14.38;;;10.00;;
43560;SDS011;32305;46.410;17.394;2023-02-11T05:31:44;12.90;;;9.77;;
43560;SDS011;32305;46.410;17.394;2023-02-11T05:34:11;15.45;;;10.80;;
43560;SDS011;32305;46.410;17.394;2023-02-11T05:36:38;15.57;;;11.55;;
43560;SDS011;32305;46.410;17.394;2023-02-11T05:39:05;18.35;;;12.25;;
43560;SDS011;32305;46.410;17.394;2023-02-11T05:41:32;17.63;;;12.35;;
43560;SDS011;32305;46.410;17.394;2023-02-11T05:43:59;19.65;;;13.15;;
43560;SDS011;32305;46.410;17.394;2023-02-11T05:46:26;17.60;;;12.00;;
43560;SDS011;32305;46.410;17.394;2023-02-11T05:48:53;16.90;;;11.93;;
43560;SDS011;32305;46.410;17.394;2023-02-11T05:51:22;18.85;;;12.32;;
43560;SDS011;32305;46.410;17.394;2023-02-11T05:53:50;18.92;;;13.05;;
43560;SDS011;32305;46.410;17.394;2023-02-11T05:56:18;19.27;;;12.82;;
43560;SDS011;32305;46.410;17.394;2023-02-11T05:58:45;18.95;;;13.35;;
43560;SDS011;32305;46.410;17.394;2023-02-11T06:01:12;17.75;;;12.32;;
43560;SDS011;32305;46.410;17.394;2023-02-11T06:03:39;16.23;;;11.77;;
43560;SDS011;32305;46.410;17.394;2023-02-11T06:06:10;17.20;;;12.45;;
43560;SDS011;32305;46.410;17.394;2023-02-11T06:08:38;17.85;;;12.60;;
43560;SDS011;32305;46.410;17.394;2023-02-11T06:11:05;18.50;;;13.25;;
43560;SDS011;32305;46.410;17.394;2023-02-11T06:13:32;19.88;;;12.05;;
43560;SDS011;32305;46.410;17.394;2023-02-11T06:16:00;18.38;;;12.80;;
43560;SDS011;32305;46.410;17.394;2023-02-11T06:18:28;17.35;;;12.90;;
43560;SDS011;32305;46.410;17.394;2023-02-11T06:20:55;18.13;;;12.55;;
43560;SDS011;32305;46.410;17.394;2023-02-11T06:23:23;21.05;;;12.65;;
43560;SDS011;32305;46.410;17.394;2023-02-11T06:25:50;19.08;;;12.65;;
43560;SDS011;32305;46.410;17.394;2023-02-11T06:28:18;18.73;;;13.00;;
43560;SDS011;32305;46.410;17.394;2023-02-11T06:30:45;19.85;;;13.32;;
43560;SDS011;32305;46.410;17.394;2023-02-11T06:33:12;20.30;;;13.48;;
43560;SDS011;32305;46.410;17.394;2023-02-11T06:35:40;21.33;;;13.88;;
43560;SDS011;32305;46.410;17.394;2023-02-11T06:38:08;20.23;;;13.65;;
43560;SDS011;32305;46.410;17.394;2023-02-11T06:40:35;19.85;;;14.18;;
43560;SDS011;32305;46.410;17.394;2023-02-11T06:43:02;17.77;;;12.63;;
43560;SDS011;32305;46.410;17.394;2023-02-11T06:45:29;19.52;;;14.38;;
43560;SDS011;32305;46.410;17.394;2023-02-11T06:47:56;20.83;;;14.93;;
43560;SDS011;32305;46.410;17.394;2023-02-11T06:50:23;22.20;;;14.13;;
43560;SDS011;32305;46.410;17.394;2023-02-11T06:52:50;20.65;;;14.43;;
43560;SDS011;32305;46.410;17.394;2023-02-11T06:55:17;20.52;;;14.55;;
43560;SDS011;32305;46.410;17.394;2023-02-11T06:57:45;19.10;;;12.98;;
43560;SDS011;32305;46.410;17.394;2023-02-11T07:00:12;22.60;;;14.68;;
43560;SDS011;32305;46.410;17.394;2023-02-11T07:02:39;22.50;;;15.23;;
43560;SDS011;32305;46.410;17.394;2023-02-11T07:05:07;20.63;;;14.90;;
43560;SDS011;32305;46.410;17.394;2023-02-11T07:07:35;20.90;;;14.52;;
43560;SDS011;32305;46.410;17.394;2023-02-11T07:10:02;20.80;;;14.75;;
43560;SDS011;32305;46.410;17.394;2023-02-11T07:12:31;21.80;;;15.18;;
43560;SDS011;32305;46.410;17.394;2023-02-11T07:14:58;19.13;;;14.73;;
43560;SDS011;32305;46.410;17.394;2023-02-11T07:17:25;21.83;;;15.43;;
43560;SDS011;32305;46.410;17.394;2023-02-11T07:19:52;22.65;;;16.15;;
43560;SDS011;32305;46.410;17.394;2023-02-11T07:22:19;20.63;;;14.52;;
43560;SDS011;32305;46.410;17.394;2023-02-11T07:24:46;22.35;;;15.23;;
43560;SDS011;32305;46.410;17.394;2023-02-11T07:27:13;23.00;;;16.50;;
43560;SDS011;32305;46.410;17.394;2023-02-11T07:29:41;21.08;;;15.07;;
43560;SDS011;32305;46.410;17.394;2023-02-11T07:32:08;19.55;;;14.77;;
43560;SDS011;32305;46.410;17.394;2023-02-11T07:34:36;20.50;;;14.88;;
43560;SDS011;32305;46.410;17.394;2023-02-11T07:37:03;23.77;;;16.63;;
43560;SDS011;32305;46.410;17.394;2023-02-11T07:39:30;22.30;;;16.50;;
43560;SDS011;32305;46.410;17.394;2023-02-11T07:41:58;26.60;;;16.73;;
43560;SDS011;32305;46.410;17.394;2023-02-11T07:44:25;22.50;;;15.15;;
43560;SDS011;32305;46.410;17.394;2023-02-11T07:46:52;24.13;;;16.63;;
43560;SDS011;32305;46.410;17.394;2023-02-11T07:49:19;20.10;;;15.18;;
43560;SDS011;32305;46.410;17.394;2023-02-11T07:51:47;22.35;;;15.55;;
43560;SDS011;32305;46.410;17.394;2023-02-11T07:54:16;23.40;;;15.98;;
43560;SDS011;32305;46.410;17.394;2023-02-11T07:56:43;23.60;;;16.30;;
43560;SDS011;32305;46.410;17.394;2023-02-11T07:59:11;24.80;;;16.77;;
43560;SDS011;32305;46.410;17.394;2023-02-11T08:01:38;22.92;;;16.33;;
43560;SDS011;32305;46.410;17.394;2023-02-11T08:04:05;21.95;;;16.73;;
43560;SDS011;32305;46.410;17.394;2023-02-11T08:06:33;23.15;;;16.95;;
43560;SDS011;32305;46.410;17.394;2023-02-11T08:09:05;23.27;;;17.20;;
43560;SDS011;32305;46.410;17.394;2023-02-11T08:11:34;23.33;;;15.93;;
43560;SDS011;32305;46.410;17.394;2023-02-11T08:14:01;22.50;;;15.93;;
43560;SDS011;32305;46.410;17.394;2023-02-11T08:16:30;24.30;;;17.42;;
43560;SDS011;32305;46.410;17.394;2023-02-11T08:19:01;22.63;;;15.98;;
43560;SDS011;32305;46.410;17.394;2023-02-11T08:23:57;23.65;;;16.55;;
43560;SDS011;32305;46.410;17.394;2023-02-11T08:26:25;25.25;;;17.75;;
43560;SDS011;32305;46.410;17.394;2023-02-11T08:31:23;24.20;;;16.45;;
43560;SDS011;32305;46.410;17.394;2023-02-11T08:33:56;22.40;;;16.60;;
43560;SDS011;32305;46.410;17.394;2023-02-11T08:36:25;23.13;;;16.48;;
43560;SDS011;32305;46.410;17.394;2023-02-11T08:38:55;22.88;;;16.75;;
43560;SDS011;32305;46.410;17.394;2023-02-11T08:41:43;23.15;;;16.58;;
43560;SDS011;32305;46.410;17.394;2023-02-11T08:44:11;23.48;;;16.17;;
43560;SDS011;32305;46.410;17.394;2023-02-11T08:46:38;20.52;;;15.90;;
43560;SDS011;32305;46.410;17.394;2023-02-11T08:49:05;23.20;;;16.10;;
43560;SDS011;32305;46.410;17.394;2023-02-11T08:51:32;22.80;;;16.15;;
43560;SDS011;32305;46.410;17.394;2023-02-11T08:53:59;19.65;;;15.27;;
43560;SDS011;32305;46.410;17.394;2023-02-11T08:56:27;20.13;;;15.70;;
43560;SDS011;32305;46.410;17.394;2023-02-11T08:58:54;20.73;;;15.32;;
43560;SDS011;32305;46.410;17.394;2023-02-11T09:01:22;20.70;;;15.68;;
43560;SDS011;32305;46.410;17.394;2023-02-11T09:06:19;22.67;;;16.25;;
43560;SDS011;32305;46.410;17.394;2023-02-11T09:08:48;20.95;;;15.50;;
43560;SDS011;32305;46.410;17.394;2023-02-11T09:11:18;20.83;;;15.40;;
43560;SDS011;32305;46.410;17.394;2023-02-11T09:13:47;22.70;;;16.00;;
43560;SDS011;32305;46.410;17.394;2023-02-11T09:16:21;21.30;;;15.88;;
43560;SDS011;32305;46.410;17.394;2023-02-11T09:18:50;20.60;;;14.93;;
43560;SDS011;32305;46.410;17.394;2023-02-11T09:21:18;20.65;;;15.32;;
43560;SDS011;32305;46.410;17.394;2023-02-11T09:23:45;21.33;;;15.48;;
43560;SDS011;32305;46.410;17.394;2023-02-11T09:26:15;19.95;;;14.73;;
43560;SDS011;32305;46.410;17.394;2023-02-11T09:28:52;20.23;;;14.95;;
43560;SDS011;32305;46.410;17.394;2023-02-11T09:31:20;19.65;;;14.77;;
43560;SDS011;32305;46.410;17.394;2023-02-11T09:33:49;20.97;;;15.63;;
43560;SDS011;32305;46.410;17.394;2023-02-11T09:36:19;19.88;;;14.80;;
43560;SDS011;32305;46.410;17.394;2023-02-11T09:38:48;19.55;;;14.27;;
43560;SDS011;32305;46.410;17.394;2023-02-11T09:41:24;21.58;;;15.60;;
43560;SDS011;32305;46.410;17.394;2023-02-11T09:44:03;20.88;;;15.65;;
43560;SDS011;32305;46.410;17.394;2023-02-11T09:49:01;18.95;;;15.30;;
43560;SDS011;32305;46.410;17.394;2023-02-11T09:51:41;19.60;;;15.30;;
43560;SDS011;32305;46.410;17.394;2023-02-11T09:54:22;21.55;;;15.50;;
43560;SDS011;32305;46.410;17.394;2023-02-11T09:56:55;19.33;;;14.32;;
43560;SDS011;32305;46.410;17.394;2023-02-11T09:59:22;19.48;;;15.13;;
43560;SDS011;32305;46.410;17.394;2023-02-11T10:01:52;19.17;;;14.20;;
43560;SDS011;32305;46.410;17.394;2023-02-11T10:04:43;18.50;;;14.15;;
43560;SDS011;32305;46.410;17.394;2023-02-11T10:07:24;20.75;;;14.65;;
43560;SDS011;32305;46.410;17.394;2023-02-11T10:10:12;21.10;;;14.48;;
43560;SDS011;32305;46.410;17.394;2023-02-11T10:13:08;19.27;;;14.88;;
43560;SDS011;32305;46.410;17.394;2023-02-11T10:16:03;20.08;;;15.00;;
43560;SDS011;32305;46.410;17.394;2023-02-11T10:18:47;19.05;;;14.05;;
43560;SDS011;32305;46.410;17.394;2023-02-11T10:21:38;17.25;;;13.48;;
43560;SDS011;32305;46.410;17.394;2023-02-11T10:24:25;20.73;;;14.98;;
43560;SDS011;32305;46.410;17.394;2023-02-11T10:26:54;18.98;;;13.70;;
43560;SDS011;32305;46.410;17.394;2023-02-11T10:29:25;17.70;;;13.57;;
43560;SDS011;32305;46.410;17.394;2023-02-11T10:32:03;18.98;;;13.75;;
43560;SDS011;32305;46.410;17.394;2023-02-11T10:34:41;18.38;;;13.70;;
43560;SDS011;32305;46.410;17.394;2023-02-11T10:37:10;17.88;;;13.85;;
43560;SDS011;32305;46.410;17.394;2023-02-11T10:39:39;16.88;;;13.13;;
43560;SDS011;32305;46.410;17.394;2023-02-11T10:42:08;17.75;;;13.73;;
43560;SDS011;32305;46.410;17.394;2023-02-11T10:44:40;17.10;;;13.50;;
43560;SDS011;32305;46.410;17.394;2023-02-11T10:47:13;16.95;;;12.45;;
43560;SDS011;32305;46.410;17.394;2023-02-11T10:49:46;18.10;;;13.63;;
43560;SDS011;32305;46.410;17.394;2023-02-11T10:52:17;17.33;;;13.38;;
43560;SDS011;32305;46.410;17.394;2023-02-11T10:54:56;18.27;;;13.70;;
43560;SDS011;32305;46.410;17.394;2023-02-11T10:58:00;17.67;;;13.80;;
43560;SDS011;32305;46.410;17.394;2023-02-11T11:00:35;17.13;;;12.80;;
43560;SDS011;32305;46.410;17.394;2023-02-11T11:03:16;18.20;;;13.68;;
43560;SDS011;32305;46.410;17.394;2023-02-11T11:05:47;16.85;;;12.48;;
43560;SDS011;32305;46.410;17.394;2023-02-11T11:08:16;17.95;;;13.57;;
43560;SDS011;32305;46.410;17.394;2023-02-11T11:10:46;17.17;;;12.75;;
43560;SDS011;32305;46.410;17.394;2023-02-11T11:13:23;16.75;;;13.05;;
43560;SDS011;32305;46.410;17.394;2023-02-11T11:16:16;16.67;;;12.65;;
43560;SDS011;32305;46.410;17.394;2023-02-11T11:18:46;17.40;;;12.50;;
43560;SDS011;32305;46.410;17.394;2023-02-11T11:21:20;14.05;;;11.38;;
43560;SDS011;32305;46.410;17.394;2023-02-11T11:23:57;16.55;;;12.05;;
43560;SDS011;32305;46.410;17.394;2023-02-11T11:26:27;20.55;;;12.43;;
43560;SDS011;32305;46.410;17.394;2023-02-11T11:29:16;17.98;;;12.23;;
43560;SDS011;32305;46.410;17.394;2023-02-11T11:31:51;15.77;;;12.52;;
43560;SDS011;32305;46.410;17.394;2023-02-11T11:34:34;17.75;;;11.88;;
43560;SDS011;32305;46.410;17.394;2023-02-11T11:37:20;15.50;;;11.73;;
43560;SDS011;32305;46.410;17.394;2023-02-11T11:39:58;16.55;;;12.73;;
43560;SDS011;32305;46.410;17.394;2023-02-11T11:42:43;15.90;;;11.73;;
43560;SDS011;32305;46.410;17.394;2023-02-11T11:45:21;13.82;;;11.65;;
43560;SDS011;32305;46.410;17.394;2023-02-11T11:47:58;15.55;;;11.82;;
43560;SDS011;32305;46.410;17.394;2023-02-11T11:50:34;17.48;;;12.27;;
43560;SDS011;32305;46.410;17.394;2023-02-11T11:53:13;15.63;;;12.07;;
43560;SDS011;32305;46.410;17.394;2023-02-11T11:56:03;16.30;;;11.90;;
43560;SDS011;32305;46.410;17.394;2023-02-11T11:58:51;13.07;;;10.65;;
43560;SDS011;32305;46.410;17.394;2023-02-11T12:01:30;14.23;;;10.90;;
43560;SDS011;32305;46.410;17.394;2023-02-11T12:04:23;15.43;;;10.65;;
43560;SDS011;32305;46.410;17.394;2023-02-11T12:10:22;16.17;;;10.80;;
43560;SDS011;32305;46.410;17.394;2023-02-11T12:22:25;14.77;;;10.95;;
43560;SDS011;32305;46.410;17.394;2023-02-11T12:25:16;12.20;;;10.07;;
43560;SDS011;32305;46.410;17.394;2023-02-11T12:31:10;14.38;;;10.77;;
43560;SDS011;32305;46.410;17.394;2023-02-11T12:34:01;15.65;;;11.00;;
43560;SDS011;32305;46.410;17.394;2023-02-11T12:37:04;13.55;;;10.55;;
43560;SDS011;32305;46.410;17.394;2023-02-11T12:39:49;13.65;;;10.73;;
43560;SDS011;32305;46.410;17.394;2023-02-11T12:48:56;15.18;;;11.15;;
43560;SDS011;32305;46.410;17.394;2023-02-11T12:51:58;14.77;;;10.68;;
43560;SDS011;32305;46.410;17.394;2023-02-11T12:54:52;13.85;;;10.02;;
43560;SDS011;32305;46.410;17.394;2023-02-11T12:57:28;15.15;;;10.57;;
43560;SDS011;32305;46.410;17.394;2023-02-11T13:02:50;14.82;;;10.93;;
43560;SDS011;32305;46.410;17.394;2023-02-11T13:05:33;12.00;;;9.63;;
43560;SDS011;32305;46.410;17.394;2023-02-11T13:08:14;13.30;;;10.15;;
43560;SDS011;32305;46.410;17.394;2023-02-11T13:10:57;14.15;;;11.30;;
43560;SDS011;32305;46.410;17.394;2023-02-11T13:13:32;13.70;;;10.30;;
43560;SDS011;32305;46.410;17.394;2023-02-11T13:16:06;12.40;;;9.45;;
43560;SDS011;32305;46.410;17.394;2023-02-11T13:18:54;13.95;;;10.52;;
43560;SDS011;32305;46.410;17.394;2023-02-11T13:22:02;12.93;;;9.48;;
43560;SDS011;32305;46.410;17.394;2023-02-11T13:24:46;12.70;;;9.93;;
43560;SDS011;32305;46.410;17.394;2023-02-11T13:30:16;13.77;;;10.07;;
43560;SDS011;32305;46.410;17.394;2023-02-11T13:33:05;12.07;;;9.85;;
43560;SDS011;32305;46.410;17.394;2023-02-11T13:35:46;14.35;;;10.40;;
43560;SDS011;32305;46.410;17.394;2023-02-11T13:38:34;11.73;;;9.57;;
43560;SDS011;32305;46.410;17.394;2023-02-11T13:41:04;12.23;;;9.25;;
43560;SDS011;32305;46.410;17.394;2023-02-11T13:43:42;12.77;;;10.02;;
43560;SDS011;32305;46.410;17.394;2023-02-11T13:46:10;12.07;;;10.27;;
43560;SDS011;32305;46.410;17.394;2023-02-11T13:48:48;13.68;;;10.20;;
43560;SDS011;32305;46.410;17.394;2023-02-11T13:51:31;12.60;;;9.73;;
43560;SDS011;32305;46.410;17.394;2023-02-11T13:54:02;13.25;;;9.68;;
43560;SDS011;32305;46.410;17.394;2023-02-11T13:56:32;11.48;;;9.45;;
43560;SDS011;32305;46.410;17.394;2023-02-11T13:59:42;11.48;;;9.27;;
43560;SDS011;32305;46.410;17.394;2023-02-11T14:02:20;13.80;;;9.98;;
43560;SDS011;32305;46.410;17.394;2023-02-11T14:05:22;12.65;;;9.65;;
43560;SDS011;32305;46.410;17.394;2023-02-11T14:08:18;12.27;;;9.13;;
43560;SDS011;32305;46.410;17.394;2023-02-11T14:14:20;11.77;;;9.05;;
43560;SDS011;32305;46.410;17.394;2023-02-11T14:19:43;11.82;;;8.88;;
43560;SDS011;32305;46.410;17.394;2023-02-11T14:22:16;12.57;;;9.57;;
43560;SDS011;32305;46.410;17.394;2023-02-11T14:25:00;11.77;;;9.45;;
43560;SDS011;32305;46.410;17.394;2023-02-11T14:27:33;12.80;;;9.43;;
43560;SDS011;32305;46.410;17.394;2023-02-11T14:30:19;11.98;;;8.98;;
43560;SDS011;32305;46.410;17.394;2023-02-11T14:33:10;11.77;;;8.80;;
43560;SDS011;32305;46.410;17.394;2023-02-11T14:35:50;12.07;;;9.93;;
43560;SDS011;32305;46.410;17.394;2023-02-11T14:41:40;11.63;;;8.95;;
43560;SDS011;32305;46.410;17.394;2023-02-11T14:44:14;10.75;;;8.52;;
43560;SDS011;32305;46.410;17.394;2023-02-11T14:46:46;13.95;;;9.88;;
43560;SDS011;32305;46.410;17.394;2023-02-11T14:49:19;12.98;;;9.25;;
43560;SDS011;32305;46.410;17.394;2023-02-11T14:51:57;10.90;;;8.63;;
43560;SDS011;32305;46.410;17.394;2023-02-11T14:54:31;11.68;;;9.18;;
43560;SDS011;32305;46.410;17.394;2023-02-11T14:57:11;11.13;;;8.68;;
43560;SDS011;32305;46.410;17.394;2023-02-11T14:59:57;11.52;;;9.00;;
43560;SDS011;32305;46.410;17.394;2023-02-11T15:02:31;11.25;;;8.98;;
43560;SDS011;32305;46.410;17.394;2023-02-11T15:05:13;11.10;;;8.65;;
43560;SDS011;32305;46.410;17.394;2023-02-11T15:07:53;11.25;;;8.80;;
43560;SDS011;32305;46.410;17.394;2023-02-11T15:10:30;10.63;;;8.75;;
43560;SDS011;32305;46.410;17.394;2023-02-11T15:13:03;9.55;;;7.95;;
43560;SDS011;32305;46.410;17.394;2023-02-11T15:15:31;10.55;;;8.43;;
43560;SDS011;32305;46.410;17.394;2023-02-11T15:18:01;10.65;;;7.85;;
43560;SDS011;32305;46.410;17.394;2023-02-11T15:20:30;11.18;;;8.75;;
43560;SDS011;32305;46.410;17.394;2023-02-11T15:23:00;10.77;;;7.80;;
43560;SDS011;32305;46.410;17.394;2023-02-11T15:25:30;9.65;;;7.82;;
43560;SDS011;32305;46.410;17.394;2023-02-11T15:27:59;10.20;;;8.00;;
43560;SDS011;32305;46.410;17.394;2023-02-11T15:30:29;9.52;;;8.05;;
43560;SDS011;32305;46.410;17.394;2023-02-11T15:33:01;10.85;;;8.15;;
43560;SDS011;32305;46.410;17.394;2023-02-11T15:35:36;9.93;;;8.05;;
43560;SDS011;32305;46.410;17.394;2023-02-11T15:38:06;9.35;;;7.70;;
43560;SDS011;32305;46.410;17.394;2023-02-11T15:40:36;9.60;;;7.80;;
43560;SDS011;32305;46.410;17.394;2023-02-11T15:43:04;9.57;;;7.18;;